Townsville, North Carolina
Current Conditions -  °F | °C
As of 7:15 PM on Thursday 27 Nov 2014 (Local Time) from KW63 Reporting Station
Clear Clear  
Wind Chill: 30°   Ceiling: Unl
Heat Index: 37°   Visibility: NA
Dew Point: 28°   Wind: 12mph
Humidity: 70%   Direction: 310°NW
Pressure: 30.18"   Gusts: NA
Location:  36.5°N, 78.42°W
Report Text: KW63 280015Z AUTO 31010KT CLR 03/M02 A3018 RMK AO1
Loading
Personal Weather Stations






























Interactive Weather Map New forecast layout! Learn more

10-Day Weather Forecast

Advertisements
Track Severe Weather on mobile